Time;durP1;ratioP1;P1;durP2;ratioP2;P2;SDS_P1;SDS_P2;PMS_P1;PMS_P2;Temp;Humidity;BMP_temperature;BMP_pressure;BME280_temperature;BME280_humidity;BME280_pressure;Samples;Min_cycle;Max_cycle;Signal;HPM_P1;HPM_P2
2023/12/28 00:00:14;;;;;;;10.60;10.30;;;4.40;99.90;;;;;;6170503;23;20200;-81
2023/12/28 00:02:41;;;;;;;10.73;10.43;;;4.40;99.90;;;;;;6169495;23;20263;-81
2023/12/28 00:05:10;;;;;;;10.70;10.40;;;4.30;99.90;;;;;;6170586;23;20192;-79
2023/12/28 00:07:38;;;;;;;10.60;10.30;;;4.40;99.90;;;;;;6169458;23;20196;-81
2023/12/28 00:10:06;;;;;;;10.30;10.00;;;4.40;99.90;;;;;;6170946;23;20204;-81
2023/12/28 00:12:34;;;;;;;10.43;10.13;;;4.40;99.90;;;;;;6170423;23;20200;-80
2023/12/28 00:15:01;;;;;;;10.53;10.23;;;4.40;99.90;;;;;;6169658;23;20287;-81
2023/12/28 00:17:28;;;;;;;10.60;10.30;;;4.40;99.90;;;;;;6169741;23;20268;-81
2023/12/28 00:19:55;;;;;;;10.40;10.10;;;4.30;99.90;;;;;;6169925;23;20203;-81
2023/12/28 00:22:24;;;;;;;10.70;10.40;;;4.20;99.90;;;;;;6169795;23;20201;-81
2023/12/28 00:24:51;;;;;;;10.70;10.40;;;4.20;99.90;;;;;;6172011;23;20210;-81
2023/12/28 00:27:19;;;;;;;10.53;10.23;;;4.20;99.90;;;;;;6179643;23;20212;-81
2023/12/28 00:29:46;;;;;;;10.60;10.30;;;4.30;99.90;;;;;;6179953;23;20236;-81
2023/12/28 00:32:13;;;;;;;10.80;10.50;;;4.30;99.90;;;;;;6177509;23;20224;-80
2023/12/28 00:34:41;;;;;;;10.73;10.43;;;4.20;99.90;;;;;;6171708;23;20199;-80
2023/12/28 00:37:08;;;;;;;11.10;10.70;;;4.10;99.90;;;;;;6170608;23;20198;-80
2023/12/28 00:39:36;;;;;;;10.70;10.40;;;4.00;99.90;;;;;;6170557;23;20197;-80
2023/12/28 00:42:05;;;;;;;10.50;10.20;;;3.90;99.90;;;;;;6170237;23;20200;-80
2023/12/28 00:44:32;;;;;;;10.80;10.50;;;3.90;99.90;;;;;;6170697;23;20193;-79
2023/12/28 00:46:59;;;;;;;10.67;10.37;;;3.80;99.90;;;;;;6169930;23;20220;-79
2023/12/28 00:49:27;;;;;;;10.67;10.37;;;3.80;99.90;;;;;;6170858;23;20195;-80
2023/12/28 00:51:54;;;;;;;10.63;10.33;;;3.80;99.90;;;;;;6170797;23;20228;-80
2023/12/28 00:54:21;;;;;;;10.77;10.47;;;3.80;99.90;;;;;;6171185;23;20192;-80
2023/12/28 00:56:50;;;;;;;11.03;10.70;;;3.80;99.90;;;;;;6171325;23;20516;-80
2023/12/28 00:59:17;;;;;;;11.00;10.70;;;3.70;99.90;;;;;;6171050;23;20200;-80
2023/12/28 01:01:44;;;;;;;10.67;10.37;;;3.70;99.90;;;;;;6170989;23;20204;-80
2023/12/28 01:04:12;;;;;;;10.77;10.47;;;3.60;99.90;;;;;;6171048;23;20251;-80
2023/12/28 01:06:39;;;;;;;10.93;10.63;;;3.60;99.90;;;;;;6170709;23;20259;-80
2023/12/28 01:09:08;;;;;;;10.80;10.50;;;3.50;99.90;;;;;;6171531;23;20197;-80
2023/12/28 01:11:35;;;;;;;10.90;10.60;;;3.50;99.90;;;;;;6174168;23;20216;-80
2023/12/28 01:14:04;;;;;;;10.77;10.47;;;3.50;99.90;;;;;;6175012;23;20193;-80
2023/12/28 01:16:31;;;;;;;10.40;10.10;;;3.50;99.90;;;;;;6173957;23;20218;-82
2023/12/28 01:18:58;;;;;;;10.53;10.23;;;3.50;99.90;;;;;;6172975;23;20227;-79
2023/12/28 01:21:26;;;;;;;10.50;10.20;;;3.50;99.90;;;;;;6172060;23;20201;-80
2023/12/28 01:23:54;;;;;;;10.80;10.50;;;3.50;99.90;;;;;;6171405;23;20193;-80
2023/12/28 01:26:21;;;;;;;10.50;10.20;;;3.40;99.90;;;;;;6171083;23;20215;-81
2023/12/28 01:28:49;;;;;;;10.23;9.93;;;3.40;99.90;;;;;;6170065;23;20196;-81
2023/12/28 01:31:17;;;;;;;10.37;10.07;;;3.40;99.90;;;;;;6170870;23;20208;-80
2023/12/28 01:33:44;;;;;;;10.43;10.13;;;3.30;99.90;;;;;;6169998;23;20196;-81
2023/12/28 01:36:19;;;;;;;10.17;9.87;;;3.30;99.90;;;;;;6171088;23;20279;-81
2023/12/28 01:38:46;;;;;;;9.97;9.67;;;3.30;99.90;;;;;;6171400;23;20247;-79
2023/12/28 01:41:15;;;;;;;10.00;9.70;;;3.30;99.90;;;;;;6170322;23;20214;-79
2023/12/28 01:43:42;;;;;;;9.87;9.57;;;3.30;99.90;;;;;;6169837;23;20210;-79
2023/12/28 01:46:14;;;;;;;10.07;9.77;;;3.30;99.90;;;;;;6170392;23;20212;-81
2023/12/28 01:48:44;;;;;;;10.10;9.80;;;3.40;99.90;;;;;;6170452;23;20200;-81
2023/12/28 01:51:12;;;;;;;9.80;9.50;;;3.40;99.90;;;;;;6171115;23;20263;-81
2023/12/28 01:53:40;;;;;;;9.83;9.53;;;3.40;99.90;;;;;;6172327;23;20200;-81
2023/12/28 01:56:08;;;;;;;9.80;9.50;;;3.40;99.90;;;;;;6171934;23;20201;-79
2023/12/28 01:58:38;;;;;;;9.90;9.60;;;3.50;99.90;;;;;;6170328;23;20204;-79
2023/12/28 02:01:06;;;;;;;10.00;9.70;;;3.50;99.90;;;;;;6171008;23;20255;-81
2023/12/28 02:03:33;;;;;;;9.90;9.60;;;3.50;99.90;;;;;;6173293;23;20200;-79
2023/12/28 02:06:02;;;;;;;10.00;9.70;;;3.50;99.90;;;;;;6175306;23;20318;-81
2023/12/28 02:08:30;;;;;;;10.17;9.87;;;3.50;99.90;;;;;;6171837;23;20196;-81
2023/12/28 02:10:57;;;;;;;9.70;9.40;;;3.60;99.90;;;;;;6171018;23;20208;-81
2023/12/28 02:13:25;;;;;;;9.60;9.30;;;3.60;99.90;;;;;;6170900;23;20192;-81
2023/12/28 02:15:56;;;;;;;9.60;9.30;;;3.70;99.90;;;;;;6170266;23;20224;-81
2023/12/28 02:18:33;;;;;;;9.87;9.57;;;3.70;99.90;;;;;;6170754;23;20193;-81
2023/12/28 02:21:04;;;;;;;9.73;9.43;;;3.70;99.90;;;;;;6170171;23;20235;-81
2023/12/28 02:23:33;;;;;;;9.83;9.53;;;3.70;99.90;;;;;;6171119;23;20259;-81
2023/12/28 02:26:02;;;;;;;10.20;9.90;;;3.70;99.90;;;;;;6170476;23;20204;-81
2023/12/28 02:28:29;;;;;;;9.97;9.67;;;3.70;99.90;;;;;;6171190;23;20196;-81
2023/12/28 02:30:57;;;;;;;9.97;9.67;;;3.80;99.90;;;;;;6171661;23;20200;-79
2023/12/28 02:33:33;;;;;;;9.77;9.47;;;3.80;99.90;;;;;;6170740;23;20224;-80
2023/12/28 02:36:05;;;;;;;9.87;9.57;;;3.80;99.90;;;;;;6170655;23;20243;-79
2023/12/28 02:38:37;;;;;;;9.90;9.60;;;3.80;99.90;;;;;;6170025;23;20198;-80
2023/12/28 02:41:07;;;;;;;9.90;9.60;;;3.80;99.90;;;;;;6169970;23;20212;-80
2023/12/28 02:43:34;;;;;;;9.70;9.40;;;3.90;99.90;;;;;;6170569;23;20196;-79
2023/12/28 02:46:01;;;;;;;10.03;9.73;;;3.90;99.90;;;;;;6169997;23;20203;-80
2023/12/28 02:48:29;;;;;;;9.90;9.60;;;3.90;99.90;;;;;;6173262;23;20192;-80
2023/12/28 02:50:56;;;;;;;9.93;9.63;;;3.90;99.90;;;;;;6171778;23;20267;-80
2023/12/28 02:53:23;;;;;;;10.30;10.00;;;3.90;99.90;;;;;;6170924;23;20299;-82
2023/12/28 02:55:50;;;;;;;10.00;9.70;;;3.90;99.90;;;;;;6170976;23;20201;-81
2023/12/28 02:58:19;;;;;;;10.17;9.87;;;3.80;99.90;;;;;;6170402;23;20268;-80
2023/12/28 03:00:47;;;;;;;10.10;9.80;;;3.80;99.90;;;;;;6170641;23;20200;-80
2023/12/28 03:03:14;;;;;;;10.40;10.10;;;3.80;99.90;;;;;;6170444;23;20207;-81
2023/12/28 03:05:42;;;;;;;10.13;9.83;;;3.90;99.90;;;;;;6171240;23;20206;-80
2023/12/28 03:08:09;;;;;;;10.10;9.80;;;3.90;99.90;;;;;;6170542;23;20216;-80
2023/12/28 03:10:36;;;;;;;10.03;9.73;;;3.90;99.90;;;;;;6171218;23;20196;-81
2023/12/28 03:13:04;;;;;;;10.03;9.73;;;3.90;99.90;;;;;;6170329;23;20232;-81
2023/12/28 03:15:32;;;;;;;10.13;9.83;;;3.90;99.90;;;;;;6170676;23;20205;-81
2023/12/28 03:18:00;;;;;;;10.23;9.93;;;3.90;99.90;;;;;;6170296;23;20235;-81
2023/12/28 03:20:27;;;;;;;10.23;9.93;;;3.90;99.90;;;;;;6170603;23;20263;-83
2023/12/28 03:22:54;;;;;;;9.77;9.47;;;3.90;99.90;;;;;;6170324;23;20204;-81
2023/12/28 03:25:21;;;;;;;10.00;9.70;;;3.90;99.90;;;;;;6170176;23;20200;-80
2023/12/28 03:27:49;;;;;;;9.73;9.43;;;3.90;99.90;;;;;;6170118;23;20259;-81
2023/12/28 03:30:16;;;;;;;9.57;9.27;;;3.90;99.90;;;;;;6170999;23;20200;-81
2023/12/28 03:32:45;;;;;;;9.80;9.50;;;4.00;99.90;;;;;;6170549;23;20315;-80
2023/12/28 03:35:12;;;;;;;9.90;9.60;;;4.00;99.90;;;;;;6170821;23;20283;-81
2023/12/28 03:37:39;;;;;;;9.83;9.53;;;4.00;99.90;;;;;;6169889;23;20255;-81
2023/12/28 03:40:08;;;;;;;9.67;9.37;;;4.10;99.90;;;;;;6170844;23;20212;-81
2023/12/28 03:42:35;;;;;;;9.90;9.60;;;4.00;99.90;;;;;;6140438;23;20201;-81
2023/12/28 03:45:03;;;;;;;10.03;9.73;;;4.10;99.90;;;;;;6140562;23;20205;-81
2023/12/28 03:47:30;;;;;;;9.90;9.60;;;4.00;99.90;;;;;;6140479;23;20264;-81
2023/12/28 03:49:59;;;;;;;10.00;9.70;;;4.00;99.90;;;;;;6140228;23;20211;-82
2023/12/28 03:52:29;;;;;;;9.80;9.50;;;4.00;99.90;;;;;;6140337;23;20233;-81
2023/12/28 03:54:57;;;;;;;9.97;9.67;;;4.00;99.90;;;;;;6140807;23;20256;-80
2023/12/28 03:57:24;;;;;;;9.63;9.33;;;4.00;99.90;;;;;;6140580;23;20225;-81
2023/12/28 03:59:53;;;;;;;9.90;9.60;;;4.00;99.90;;;;;;6140390;23;20197;-81
2023/12/28 04:02:20;;;;;;;9.83;9.53;;;4.00;99.90;;;;;;6140108;23;20221;-80
2023/12/28 04:04:48;;;;;;;9.93;9.63;;;4.00;99.90;;;;;;6139576;23;20205;-81
2023/12/28 04:07:17;;;;;;;9.77;9.47;;;4.00;99.90;;;;;;6140115;23;20697;-81
2023/12/28 04:09:44;;;;;;;9.70;9.40;;;4.00;99.90;;;;;;6139679;23;20210;-81
2023/12/28 04:12:11;;;;;;;9.93;9.63;;;4.00;99.90;;;;;;6139725;23;20201;-81
2023/12/28 04:14:38;;;;;;;10.27;9.97;;;3.90;99.90;;;;;;6141903;23;20217;-78
2023/12/28 04:17:06;;;;;;;9.80;9.50;;;4.00;99.90;;;;;;6148553;23;20204;-79
2023/12/28 04:19:33;;;;;;;10.00;9.70;;;4.00;99.90;;;;;;6139231;23;20200;-79
2023/12/28 04:22:00;;;;;;;10.07;9.77;;;3.90;99.90;;;;;;6139626;23;20206;-79
2023/12/28 04:24:29;;;;;;;10.03;9.73;;;4.00;99.90;;;;;;6139314;23;20189;-79
2023/12/28 04:26:56;;;;;;;10.07;9.77;;;4.00;99.90;;;;;;6139571;23;20257;-79
2023/12/28 04:29:24;;;;;;;10.13;9.83;;;4.00;99.90;;;;;;6139306;23;20265;-79
2023/12/28 04:31:51;;;;;;;10.07;9.77;;;4.00;99.90;;;;;;6139710;23;20209;-79
2023/12/28 04:34:18;;;;;;;10.20;9.90;;;4.10;99.90;;;;;;6139758;23;20197;-79
2023/12/28 04:36:46;;;;;;;10.20;9.90;;;4.10;99.90;;;;;;6140086;23;20197;-79
2023/12/28 04:39:14;;;;;;;10.00;9.70;;;4.10;99.90;;;;;;6139713;23;20216;-79
2023/12/28 04:41:42;;;;;;;10.10;9.80;;;4.20;99.90;;;;;;6159410;23;20291;-80
2023/12/28 04:44:10;;;;;;;10.10;9.80;;;4.20;99.90;;;;;;6169472;23;20188;-80
2023/12/28 04:46:41;;;;;;;10.13;9.83;;;4.30;99.90;;;;;;6169677;23;20196;-79
2023/12/28 04:49:08;;;;;;;10.27;9.97;;;4.30;99.90;;;;;;6169123;23;20259;-79
2023/12/28 04:51:35;;;;;;;9.93;9.63;;;4.30;99.90;;;;;;6172763;23;20236;-78
2023/12/28 04:54:03;;;;;;;10.40;10.10;;;4.40;99.90;;;;;;6180637;23;20208;-79
2023/12/28 04:56:30;;;;;;;10.30;10.00;;;4.50;99.90;;;;;;6180493;23;20232;-79
2023/12/28 04:58:59;;;;;;;10.33;10.03;;;4.50;99.90;;;;;;6175407;23;20193;-78
2023/12/28 05:01:27;;;;;;;10.30;10.00;;;4.60;99.90;;;;;;6170208;23;20212;-79
2023/12/28 05:03:54;;;;;;;10.00;9.70;;;4.60;99.90;;;;;;6169862;23;20184;-79
2023/12/28 05:06:24;;;;;;;9.80;9.50;;;4.60;99.90;;;;;;6175884;23;20203;-89
2023/12/28 05:08:54;;;;;;;10.40;10.10;;;4.60;99.90;;;;;;6208261;23;20207;-89
2023/12/28 05:11:22;;;;;;;10.20;9.90;;;4.60;99.90;;;;;;6205407;23;20202;-89
2023/12/28 05:16:33;;;;;;;10.37;10.07;;;4.60;99.90;;;;;;6200180;23;20203;-89
2023/12/28 05:19:00;;;;;;;10.30;10.00;;;4.70;99.90;;;;;;6205041;23;20196;-89
2023/12/28 05:21:28;;;;;;;9.90;9.60;;;4.70;99.90;;;;;;6204828;23;20266;-89
2023/12/28 05:24:08;;;;;;;10.07;9.77;;;4.70;99.90;;;;;;6204988;23;20179;-89
2023/12/28 05:26:36;;;;;;;9.83;9.53;;;4.70;99.90;;;;;;6204815;23;20199;-89
2023/12/28 05:29:06;;;;;;;9.90;9.60;;;4.60;99.90;;;;;;6203966;23;20211;-88
2023/12/28 05:34:32;;;;;;;9.90;9.60;;;4.60;99.90;;;;;;6203174;23;20183;-88
2023/12/28 05:37:00;;;;;;;10.00;9.70;;;4.60;99.90;;;;;;6205565;23;20203;-89
2023/12/28 05:39:30;;;;;;;10.10;9.80;;;4.70;99.90;;;;;;6205960;23;20199;-89
2023/12/28 05:42:09;;;;;;;10.17;9.87;;;4.70;99.90;;;;;;6205570;23;20243;-88
2023/12/28 05:44:37;;;;;;;9.90;9.60;;;4.70;99.90;;;;;;6205883;23;20202;-88
2023/12/28 05:47:09;;;;;;;9.77;9.47;;;4.70;99.90;;;;;;6205349;23;20200;-89
2023/12/28 05:49:39;;;;;;;9.80;9.50;;;4.80;99.90;;;;;;6205538;23;20199;-89
2023/12/28 05:52:07;;;;;;;9.70;9.40;;;4.80;99.90;;;;;;6206613;23;20196;-89
2023/12/28 05:54:37;;;;;;;9.70;9.40;;;4.90;99.90;;;;;;6208367;23;20208;-89
2023/12/28 05:57:05;;;;;;;9.70;9.40;;;5.00;99.90;;;;;;6206834;23;20206;-89
2023/12/28 05:59:46;;;;;;;9.67;9.37;;;5.00;99.90;;;;;;6209509;23;20203;-88
2023/12/28 06:02:15;;;;;;;10.03;9.73;;;5.00;99.90;;;;;;6219993;23;20203;-88
2023/12/28 06:04:43;;;;;;;10.13;9.83;;;5.10;99.90;;;;;;6218200;23;20199;-89
2023/12/28 06:07:11;;;;;;;10.10;9.80;;;5.10;99.90;;;;;;6219090;23;20207;-87
2023/12/28 06:09:51;;;;;;;9.97;9.67;;;5.10;99.90;;;;;;6219061;23;20192;-88
2023/12/28 06:12:22;;;;;;;9.90;9.60;;;5.10;99.90;;;;;;6220037;23;20193;-88
2023/12/28 06:14:49;;;;;;;9.80;9.50;;;5.10;99.90;;;;;;6216391;23;20183;-89
2023/12/28 06:17:20;;;;;;;9.63;9.33;;;5.00;99.90;;;;;;6208431;23;20207;-89
2023/12/28 06:19:49;;;;;;;9.77;9.47;;;5.00;99.90;;;;;;6212258;23;20196;-89
2023/12/28 06:22:17;;;;;;;9.80;9.50;;;4.90;99.90;;;;;;6211195;23;20204;-88
2023/12/28 06:24:56;;;;;;;9.83;9.53;;;4.90;99.90;;;;;;6209986;23;20202;-89
2023/12/28 06:27:24;;;;;;;9.70;9.40;;;4.70;99.90;;;;;;6209382;23;20208;-89
2023/12/28 06:32:36;;;;;;;9.83;9.53;;;4.60;99.90;;;;;;6205340;23;20199;-89
2023/12/28 06:35:04;;;;;;;10.00;9.70;;;4.60;99.90;;;;;;6209356;23;20188;-88
2023/12/28 06:37:33;;;;;;;10.17;9.87;;;4.60;99.90;;;;;;6205729;23;20231;-88
2023/12/28 06:40:02;;;;;;;9.73;9.43;;;4.60;99.90;;;;;;6205984;23;20206;-88
2023/12/28 06:42:31;;;;;;;9.93;9.63;;;4.60;99.90;;;;;;6205140;23;20199;-88
2023/12/28 06:45:10;;;;;;;10.03;9.73;;;4.70;99.90;;;;;;6206285;23;20188;-89
2023/12/28 06:47:56;;;;;;;10.00;9.70;;;4.70;99.90;;;;;;6205339;23;20255;-89
2023/12/28 06:50:28;;;;;;;9.80;9.50;;;4.70;99.90;;;;;;6205698;23;20732;-89
2023/12/28 06:52:56;;;;;;;10.10;9.80;;;4.80;99.90;;;;;;6205579;23;20202;-89
2023/12/28 06:55:35;;;;;;;9.43;9.13;;;4.80;99.90;;;;;;6205721;23;20219;-89
2023/12/28 06:58:03;;;;;;;9.57;9.27;;;4.90;99.90;;;;;;6205253;23;20223;-89
2023/12/28 07:00:43;;;;;;;9.80;9.50;;;4.90;99.90;;;;;;6204837;23;20227;-89
2023/12/28 07:03:13;;;;;;;9.50;9.20;;;5.00;99.90;;;;;;6205031;23;20192;-89
2023/12/28 07:05:41;;;;;;;9.67;9.37;;;5.00;99.90;;;;;;6204862;23;20991;-89
2023/12/28 07:08:10;;;;;;;9.40;9.10;;;5.10;99.90;;;;;;6205433;23;20207;-89
2023/12/28 07:13:18;;;;;;;9.63;9.33;;;5.20;99.90;;;;;;6198352;23;20278;-90
2023/12/28 07:15:47;;;;;;;9.83;9.53;;;5.30;99.90;;;;;;6205040;23;20187;-90
2023/12/28 07:18:35;;;;;;;9.87;9.57;;;5.30;99.90;;;;;;6205415;23;20251;-89
2023/12/28 07:21:03;;;;;;;10.10;9.80;;;5.50;99.90;;;;;;6203597;23;20347;-86
2023/12/28 07:23:36;;;;;;;9.70;9.40;;;5.60;99.90;;;;;;6205923;23;20202;-86
2023/12/28 07:26:12;;;;;;;9.70;9.40;;;5.80;99.90;;;;;;6205693;23;20214;-87
2023/12/28 07:28:43;;;;;;;9.93;9.63;;;5.90;99.90;;;;;;6204955;23;20202;-86
2023/12/28 07:31:31;;;;;;;9.60;9.30;;;6.00;99.90;;;;;;6206354;23;20194;-86
2023/12/28 07:34:09;;;;;;;9.70;9.40;;;6.00;99.90;;;;;;6211410;23;20244;-86
2023/12/28 07:39:50;;;;;;;9.83;9.53;;;6.10;99.90;;;;;;6205039;23;20250;-87
2023/12/28 07:42:18;;;;;;;9.90;9.60;;;6.10;99.90;;;;;;6205898;23;20202;-86
2023/12/28 07:44:47;;;;;;;9.77;9.47;;;6.10;99.90;;;;;;6205881;23;20200;-86
2023/12/28 07:47:17;;;;;;;9.63;9.33;;;6.00;99.90;;;;;;6205448;23;20974;-87
2023/12/28 07:52:35;;;;;;;9.67;9.37;;;5.90;99.90;;;;;;6208837;23;20191;-88
2023/12/28 07:55:04;;;;;;;9.60;9.30;;;5.80;99.90;;;;;;6209519;23;20191;-88
2023/12/28 07:57:34;;;;;;;9.70;9.40;;;5.80;99.90;;;;;;6206354;23;20203;-88
2023/12/28 08:00:03;;;;;;;9.90;9.60;;;5.80;99.90;;;;;;6215025;22;20248;-88
2023/12/28 08:02:31;;;;;;;9.90;9.60;;;5.80;99.90;;;;;;6219199;22;20195;-87
2023/12/28 08:05:10;;;;;;;9.63;9.33;;;5.90;99.90;;;;;;6217666;22;20195;-88
2023/12/28 08:07:39;;;;;;;9.90;9.60;;;5.90;99.90;;;;;;6196480;23;20260;-88
2023/12/28 08:10:08;;;;;;;9.60;9.30;;;5.90;99.90;;;;;;6219642;23;20183;-89
2023/12/28 08:12:48;;;;;;;9.43;9.13;;;6.00;99.90;;;;;;6216346;23;20196;-88
2023/12/28 08:15:17;;;;;;;9.63;9.33;;;6.00;99.90;;;;;;6209015;23;20201;-88
2023/12/28 08:17:46;;;;;;;9.70;9.40;;;6.00;99.90;;;;;;6208162;23;20198;-89
2023/12/28 08:23:02;;;;;;;9.67;9.37;;;6.00;99.90;;;;;;6206960;23;20195;-89
2023/12/28 08:25:32;;;;;;;10.03;9.73;;;6.00;99.90;;;;;;6206165;23;20200;-89
2023/12/28 08:40:23;;;;;;;10.00;9.70;;;6.10;99.90;;;;;;6210007;23;20195;-90
2023/12/28 08:48:17;;;;;;;9.90;9.60;;;6.30;99.90;;;;;;6176778;23;20200;-86
2023/12/28 08:50:45;;;;;;;10.17;9.87;;;6.30;99.90;;;;;;6178961;23;20204;-88
2023/12/28 08:56:11;;;;;;;9.97;9.67;;;6.30;99.90;;;;;;6174511;23;20204;-87
2023/12/28 08:59:00;;;;;;;9.90;9.60;;;6.30;99.90;;;;;;6146604;23;20263;-88
2023/12/28 09:02:41;;;;;;;9.70;9.40;;;6.40;99.90;;;;;;6175086;23;20219;-88
2023/12/28 09:08:14;;;;;;;9.97;9.67;;;6.50;99.90;;;;;;6178124;23;20283;-87
2023/12/28 09:10:42;;;;;;;10.03;9.73;;;6.60;99.90;;;;;;6176928;23;20220;-88
2023/12/28 09:13:39;;;;;;;10.10;9.80;;;6.70;99.90;;;;;;6175972;23;20211;-90
2023/12/28 09:16:28;;;;;;;10.00;9.70;;;6.80;99.90;;;;;;6157002;23;20207;-89
2023/12/28 09:24:23;;;;;;;9.83;9.53;;;7.10;99.90;;;;;;6173984;23;20231;-89
2023/12/28 09:26:53;;;;;;;10.10;9.80;;;7.20;99.90;;;;;;6175662;23;20211;-89
2023/12/28 09:29:35;;;;;;;10.00;9.70;;;7.20;99.90;;;;;;6174995;23;20200;-89
2023/12/28 09:32:05;;;;;;;10.03;9.73;;;7.30;99.90;;;;;;6175233;23;20200;-90
2023/12/28 09:42:22;;;;;;;9.90;9.60;;;7.40;99.90;;;;;;5890231;24;20214;-92
2023/12/28 09:44:50;;;;;;;10.00;9.70;;;7.40;99.90;;;;;;5944302;24;20283;-88
2023/12/28 09:47:19;;;;;;;9.90;9.60;;;7.40;99.90;;;;;;6080326;23;20518;-88
2023/12/28 09:49:48;;;;;;;10.03;9.73;;;7.30;99.90;;;;;;6205993;23;20287;-90
2023/12/28 09:52:18;;;;;;;9.80;9.50;;;7.30;99.90;;;;;;6208247;23;20291;-86
2023/12/28 09:54:49;;;;;;;9.90;9.60;;;7.30;99.90;;;;;;6213131;22;20192;-89
2023/12/28 09:57:28;;;;;;;9.70;9.40;;;7.20;99.90;;;;;;6220951;22;20253;-90
2023/12/28 09:59:56;;;;;;;10.00;9.70;;;7.20;99.90;;;;;;6218325;23;20219;-89
2023/12/28 10:02:26;;;;;;;9.73;9.43;;;7.20;99.90;;;;;;6210433;23;20199;-89
2023/12/28 10:04:53;;;;;;;9.90;9.60;;;7.30;99.90;;;;;;6208244;23;20199;-89
2023/12/28 10:10:04;;;;;;;9.70;9.40;;;7.50;99.90;;;;;;6206672;23;20203;-89
2023/12/28 10:12:40;;;;;;;9.80;9.50;;;7.50;99.90;;;;;;6207102;23;20203;-89
2023/12/28 10:15:10;;;;;;;9.80;9.50;;;7.50;99.90;;;;;;6205633;23;20191;-89
2023/12/28 10:17:41;;;;;;;9.90;9.60;;;7.50;99.90;;;;;;6217342;23;20223;-89
2023/12/28 10:20:10;;;;;;;9.70;9.40;;;7.40;99.90;;;;;;6216699;22;20191;-87
2023/12/28 10:22:40;;;;;;;9.70;9.40;;;7.40;99.90;;;;;;6207192;23;20192;-89
2023/12/28 10:27:59;;;;;;;9.80;9.50;;;7.40;99.90;;;;;;6205620;23;21074;-90
2023/12/28 10:33:21;;;;;;;9.80;9.50;;;7.50;99.90;;;;;;6201293;23;20215;-88
2023/12/28 10:35:52;;;;;;;9.70;9.40;;;7.60;99.90;;;;;;6205922;23;20258;-89
2023/12/28 10:41:07;;;;;;;9.53;9.23;;;7.80;99.90;;;;;;6206699;23;20218;-89
2023/12/28 10:43:48;;;;;;;9.70;9.40;;;7.90;99.90;;;;;;6207515;23;20369;-90
2023/12/28 10:51:58;;;;;;;9.73;9.43;;;8.10;99.90;;;;;;6175303;23;20208;-89
2023/12/28 10:54:44;;;;;;;9.90;9.60;;;8.30;99.90;;;;;;6176475;23;20219;-88
2023/12/28 10:57:27;;;;;;;9.70;9.40;;;8.40;99.90;;;;;;6175107;23;20208;-86
2023/12/28 11:05:34;;;;;;;9.80;9.50;;;8.80;99.90;;;;;;6176177;23;20199;-89
2023/12/28 11:08:03;;;;;;;9.90;9.60;;;8.90;99.90;;;;;;6186850;23;20254;-82
2023/12/28 11:10:33;;;;;;;10.13;9.83;;;9.00;99.90;;;;;;6201340;23;20238;-81
2023/12/28 11:13:03;;;;;;;10.10;9.80;;;9.00;99.90;;;;;;6203189;23;20282;-81
2023/12/28 11:15:33;;;;;;;10.27;9.97;;;9.10;99.90;;;;;;6203439;23;20198;-81
2023/12/28 11:18:00;;;;;;;10.07;9.77;;;9.10;99.90;;;;;;6202284;23;20214;-82
2023/12/28 11:20:28;;;;;;;9.97;9.67;;;9.00;99.90;;;;;;6200494;23;20195;-82
2023/12/28 11:22:56;;;;;;;9.87;9.57;;;9.00;99.90;;;;;;6201716;23;20227;-80
2023/12/28 11:25:24;;;;;;;10.10;9.80;;;9.00;99.90;;;;;;6202472;23;20255;-80
2023/12/28 11:27:51;;;;;;;10.00;9.70;;;9.00;99.90;;;;;;6203243;23;20210;-81
2023/12/28 11:30:19;;;;;;;10.13;9.83;;;8.90;99.90;;;;;;6203980;23;20207;-80
2023/12/28 11:32:48;;;;;;;10.00;9.70;;;9.00;99.90;;;;;;6204147;23;20251;-82
2023/12/28 11:35:15;;;;;;;10.30;10.00;;;9.00;99.90;;;;;;6203263;23;20187;-82
2023/12/28 11:37:48;;;;;;;9.70;9.40;;;9.10;99.90;;;;;;6202037;23;20243;-82
2023/12/28 11:40:20;;;;;;;9.90;9.60;;;9.20;99.90;;;;;;6202124;23;20206;-82
2023/12/28 11:42:52;;;;;;;10.00;9.70;;;9.30;99.90;;;;;;6209573;23;20239;-81
2023/12/28 11:45:21;;;;;;;10.20;9.90;;;9.30;99.90;;;;;;6218056;22;20187;-81
2023/12/28 11:48:00;;;;;;;9.90;9.60;;;9.40;99.90;;;;;;6218163;22;20184;-81
2023/12/28 11:50:28;;;;;;;10.00;9.70;;;9.40;99.90;;;;;;6211211;22;20203;-82
2023/12/28 11:52:55;;;;;;;10.00;9.70;;;9.40;99.90;;;;;;6203444;23;20251;-82
2023/12/28 11:55:23;;;;;;;9.77;9.47;;;9.40;99.90;;;;;;6204511;23;20191;-81
2023/12/28 11:57:52;;;;;;;9.67;9.37;;;9.40;99.90;;;;;;6203669;23;20200;-82
2023/12/28 12:00:21;;;;;;;9.90;9.60;;;9.40;99.90;;;;;;6201929;23;20188;-82
2023/12/28 12:02:49;;;;;;;9.80;9.50;;;9.40;99.90;;;;;;6205655;23;20200;-82
2023/12/28 12:05:17;;;;;;;9.93;9.63;;;9.40;99.90;;;;;;6203428;23;20207;-82
2023/12/28 12:07:44;;;;;;;9.80;9.50;;;9.50;99.90;;;;;;6202571;23;20242;-83
2023/12/28 12:10:16;;;;;;;10.00;9.70;;;9.50;99.90;;;;;;6202625;23;20226;-80
2023/12/28 12:12:44;;;;;;;9.97;9.67;;;9.60;99.90;;;;;;6201770;23;20200;-81
2023/12/28 12:15:12;;;;;;;9.87;9.57;;;9.60;99.90;;;;;;6201594;23;20191;-81
2023/12/28 12:17:39;;;;;;;9.80;9.50;;;9.70;99.90;;;;;;6200881;23;20207;-84
2023/12/28 12:20:10;;;;;;;9.90;9.60;;;9.70;99.90;;;;;;6201810;23;20321;-83
2023/12/28 12:22:39;;;;;;;10.07;9.77;;;9.70;99.90;;;;;;6202923;23;20201;-81
2023/12/28 12:25:09;;;;;;;9.77;9.47;;;9.70;99.90;;;;;;6202700;23;20200;-82
2023/12/28 12:27:39;;;;;;;9.93;9.63;;;9.70;99.90;;;;;;6202089;23;20233;-82
2023/12/28 12:30:08;;;;;;;9.80;9.50;;;9.60;99.90;;;;;;6200897;23;20207;-82
2023/12/28 12:32:39;;;;;;;9.70;9.40;;;9.60;99.90;;;;;;6201457;23;20222;-81
2023/12/28 12:35:09;;;;;;;10.03;9.73;;;9.60;99.90;;;;;;6201665;23;20199;-82
2023/12/28 12:37:36;;;;;;;9.97;9.67;;;9.60;99.90;;;;;;6200708;23;20203;-82
2023/12/28 12:40:06;;;;;;;9.60;9.30;;;9.60;99.90;;;;;;6201395;23;20196;-82
2023/12/28 12:42:33;;;;;;;9.90;9.60;;;9.50;99.90;;;;;;6202671;23;20222;-82
2023/12/28 12:45:01;;;;;;;9.67;9.37;;;9.50;99.90;;;;;;6201264;23;20290;-82
2023/12/28 12:47:34;;;;;;;9.90;9.60;;;9.50;99.90;;;;;;6203618;23;20222;-82
2023/12/28 12:50:02;;;;;;;9.50;9.20;;;9.50;99.90;;;;;;6211901;23;20196;-82
2023/12/28 12:52:31;;;;;;;9.57;9.27;;;9.50;99.90;;;;;;6211567;23;20250;-81
2023/12/28 12:54:58;;;;;;;9.73;9.43;;;9.60;99.90;;;;;;6210879;23;20258;-82
2023/12/28 12:57:27;;;;;;;9.87;9.57;;;9.60;99.90;;;;;;6204745;23;20210;-81
2023/12/28 12:59:55;;;;;;;9.80;9.50;;;9.50;99.90;;;;;;6203690;23;20192;-82
2023/12/28 13:02:24;;;;;;;9.50;9.20;;;9.40;99.90;;;;;;6203030;23;20255;-82
2023/12/28 13:04:53;;;;;;;9.40;9.10;;;9.40;99.90;;;;;;6202741;23;20196;-82
2023/12/28 13:07:21;;;;;;;9.60;9.30;;;9.40;99.90;;;;;;6202814;23;20267;-82
2023/12/28 13:09:50;;;;;;;9.57;9.27;;;9.40;99.90;;;;;;6203956;23;20211;-81
2023/12/28 13:12:17;;;;;;;9.77;9.47;;;9.50;99.90;;;;;;6203114;23;20195;-81
2023/12/28 13:14:45;;;;;;;9.40;9.10;;;9.50;99.90;;;;;;6202578;23;20227;-82
2023/12/28 13:17:12;;;;;;;9.90;9.60;;;9.60;99.90;;;;;;6201428;23;20203;-82
2023/12/28 13:19:40;;;;;;;9.63;9.33;;;9.70;99.90;;;;;;6202048;23;20208;-82
2023/12/28 13:22:09;;;;;;;9.70;9.40;;;9.70;99.90;;;;;;6204802;23;20211;-82
2023/12/28 13:24:42;;;;;;;9.80;9.50;;;9.70;99.90;;;;;;6203156;23;20199;-81
2023/12/28 13:27:11;;;;;;;9.90;9.60;;;9.70;99.90;;;;;;6204180;23;20200;-84
2023/12/28 13:29:41;;;;;;;9.87;9.57;;;9.70;99.90;;;;;;6204110;23;20219;-81
2023/12/28 13:32:09;;;;;;;9.90;9.60;;;9.70;99.90;;;;;;6203077;23;20227;-83
2023/12/28 13:34:36;;;;;;;9.43;9.13;;;9.60;99.90;;;;;;6201803;23;20286;-82
2023/12/28 13:37:04;;;;;;;9.73;9.43;;;9.60;99.90;;;;;;6203196;23;20243;-82
2023/12/28 13:39:32;;;;;;;9.73;9.43;;;9.70;99.90;;;;;;6209081;22;20227;-82
2023/12/28 13:42:00;;;;;;;9.70;9.40;;;9.70;99.90;;;;;;6205850;22;20194;-82
2023/12/28 13:44:29;;;;;;;9.60;9.30;;;9.80;99.90;;;;;;6202214;23;20254;-83
2023/12/28 13:46:56;;;;;;;9.70;9.40;;;9.80;99.90;;;;;;6202978;23;20215;-83
2023/12/28 13:49:25;;;;;;;9.60;9.30;;;9.80;99.90;;;;;;6203788;23;20216;-82
2023/12/28 13:51:53;;;;;;;9.77;9.47;;;9.80;99.90;;;;;;6203152;23;20192;-83
2023/12/28 13:54:40;;;;;;;9.70;9.40;;;9.90;99.90;;;;;;6203276;23;20262;-83
2023/12/28 13:57:13;;;;;;;9.60;9.30;;;9.90;99.90;;;;;;6202550;23;20247;-83
2023/12/28 14:00:51;;;;;;;9.73;9.43;;;10.00;99.90;;;;;;6204304;23;20187;-83
2023/12/28 14:03:22;;;;;;;9.50;9.20;;;10.00;99.90;;;;;;6191920;23;20223;-83
2023/12/28 14:05:59;;;;;;;9.57;9.27;;;9.90;99.90;;;;;;6202402;23;20199;-83
2023/12/28 14:08:29;;;;;;;9.67;9.37;;;9.70;99.90;;;;;;6201438;23;20219;-83
2023/12/28 14:14:01;;;;;;;9.80;9.50;;;9.60;99.90;;;;;;6208069;23;20188;-82
2023/12/28 14:16:54;;;;;;;9.67;9.37;;;9.50;99.90;;;;;;6203287;23;20258;-84
2023/12/28 14:23:49;;;;;;;9.90;9.60;;;9.50;99.90;;;;;;6029601;23;20207;-83
2023/12/28 14:29:30;;;;;;;10.33;10.03;;;9.40;99.90;;;;;;6081359;23;20195;-84
2023/12/28 14:33:08;;;;;;;9.73;9.43;;;9.40;99.90;;;;;;6190221;23;20286;-84
2023/12/28 14:36:22;;;;;;;10.30;10.00;;;9.40;99.90;;;;;;6166526;23;20207;-83